createdAt,value
2018-11-07T00:02:19.356Z,5.20
2018-11-07T00:04:49.469Z,5.20
2018-11-07T00:07:19.870Z,5.20
2018-11-07T00:10:07.093Z,5.20
2018-11-07T00:12:37.313Z,5.20
2018-11-07T00:15:10.398Z,5.10
2018-11-07T00:17:40.517Z,5.10
2018-11-07T00:20:11.665Z,5.10
2018-11-07T00:22:42.440Z,5.10
2018-11-07T00:25:13.098Z,5.00
2018-11-07T00:27:43.165Z,5.00
2018-11-07T00:30:13.322Z,5.00
2018-11-07T00:32:43.351Z,5.00
2018-11-07T00:35:13.592Z,5.00
2018-11-07T00:37:44.063Z,4.90
2018-11-07T00:40:14.255Z,5.00
2018-11-07T00:42:44.361Z,4.90
2018-11-07T00:45:14.519Z,4.90
2018-11-07T00:47:44.599Z,4.90
2018-11-07T00:50:16.244Z,4.90
2018-11-07T00:52:46.579Z,4.90
2018-11-07T00:55:17.005Z,4.90
2018-11-07T00:57:47.920Z,4.80
2018-11-07T01:00:20.053Z,4.80
2018-11-07T01:02:50.601Z,4.80
2018-11-07T01:05:20.660Z,4.80
2018-11-07T01:07:50.820Z,4.70
2018-11-07T01:10:24.255Z,4.70
2018-11-07T01:12:54.340Z,4.70
2018-11-07T01:15:24.411Z,4.70
2018-11-07T01:17:54.563Z,4.70
2018-11-07T01:20:24.664Z,4.70
2018-11-07T01:22:54.799Z,4.70
2018-11-07T01:25:24.963Z,4.70
2018-11-07T01:27:55.051Z,4.80
2018-11-07T01:30:25.171Z,4.80
2018-11-07T01:32:55.263Z,4.80
2018-11-07T01:35:25.461Z,4.80
2018-11-07T01:37:55.534Z,4.80
2018-11-07T01:40:25.640Z,4.80
2018-11-07T01:42:55.725Z,4.80
2018-11-07T01:45:26.529Z,4.90
2018-11-07T01:47:56.614Z,4.80
2018-11-07T01:50:26.668Z,4.80
2018-11-07T01:52:56.753Z,4.80
2018-11-07T01:55:26.800Z,4.70
2018-11-07T01:57:57.932Z,4.70
2018-11-07T02:00:28.004Z,4.60
2018-11-07T02:02:58.075Z,4.60
2018-11-07T02:05:28.148Z,4.60
2018-11-07T02:07:58.242Z,4.60
2018-11-07T02:10:28.311Z,4.60
2018-11-07T02:12:58.358Z,4.50
2018-11-07T02:15:28.479Z,4.50
2018-11-07T02:17:58.574Z,4.50
2018-11-07T02:20:28.684Z,4.40
2018-11-07T02:22:59.529Z,4.40
2018-11-07T02:25:29.644Z,4.40
2018-11-07T02:27:59.806Z,4.40
2018-11-07T02:30:29.908Z,4.40
2018-11-07T02:33:00.030Z,4.40
2018-11-07T02:35:30.738Z,4.40
2018-11-07T02:38:00.841Z,4.30
2018-11-07T02:40:31.039Z,4.30
2018-11-07T02:43:01.198Z,4.30
2018-11-07T02:45:31.252Z,4.30
2018-11-07T02:48:01.376Z,4.30
2018-11-07T02:50:31.452Z,4.20
2018-11-07T02:53:01.537Z,4.20
2018-11-07T02:55:31.616Z,4.20
2018-11-07T02:58:01.702Z,4.20
2018-11-07T03:00:31.715Z,4.20
2018-11-07T03:03:01.834Z,4.10
2018-11-07T03:05:31.912Z,4.10
2018-11-07T03:08:02.072Z,4.10
2018-11-07T03:10:32.170Z,4.10
2018-11-07T03:13:02.264Z,4.10
2018-11-07T03:15:32.370Z,4.10
2018-11-07T03:18:02.445Z,4.00
2018-11-07T03:20:32.572Z,4.00
2018-11-07T03:23:02.964Z,4.00
2018-11-07T03:25:33.028Z,4.00
2018-11-07T03:28:03.141Z,4.00
2018-11-07T03:30:33.253Z,4.00
2018-11-07T03:33:03.312Z,4.00
2018-11-07T03:35:33.445Z,3.90
2018-11-07T03:38:03.511Z,3.90
2018-11-07T03:40:33.635Z,3.90
2018-11-07T03:43:03.804Z,3.90
2018-11-07T03:45:38.950Z,3.90
2018-11-07T03:48:09.164Z,3.90
2018-11-07T03:50:39.226Z,3.90
2018-11-07T03:53:09.330Z,3.80
2018-11-07T03:55:39.953Z,3.80
2018-11-07T03:58:10.072Z,3.70
2018-11-07T04:00:40.164Z,3.70
2018-11-07T04:03:10.235Z,3.70
2018-11-07T04:05:40.294Z,3.70
2018-11-07T04:08:10.360Z,3.70
2018-11-07T04:10:40.465Z,3.70
2018-11-07T04:13:10.557Z,3.70
2018-11-07T04:15:40.633Z,3.70
2018-11-07T04:18:10.896Z,3.70
2018-11-07T04:20:40.979Z,3.60
2018-11-07T04:23:14.315Z,3.60
2018-11-07T04:25:44.441Z,3.60
2018-11-07T04:28:15.803Z,3.60
2018-11-07T04:30:45.908Z,3.60
2018-11-07T04:33:16.867Z,3.60
2018-11-07T04:35:46.962Z,3.50
2018-11-07T04:38:17.051Z,3.50
2018-11-07T04:40:47.113Z,3.50
2018-11-07T04:43:18.415Z,3.50
2018-11-07T04:45:48.523Z,3.50
2018-11-07T04:48:18.617Z,3.50
2018-11-07T04:50:48.709Z,3.50
2018-11-07T04:53:18.792Z,3.50
2018-11-07T04:55:48.895Z,3.50
2018-11-07T04:58:19.418Z,3.40
2018-11-07T05:00:49.487Z,3.40
2018-11-07T05:03:20.218Z,3.40
2018-11-07T05:05:51.021Z,3.40
2018-11-07T05:08:21.141Z,3.40
2018-11-07T05:10:51.179Z,3.40
2018-11-07T05:13:21.337Z,3.40
2018-11-07T05:15:51.373Z,3.40
2018-11-07T05:18:21.917Z,3.40
2018-11-07T05:20:53.783Z,3.40
2018-11-07T05:23:24.706Z,3.30
2018-11-07T05:25:54.815Z,3.30
2018-11-07T05:28:24.912Z,3.30
2018-11-07T05:30:54.995Z,3.30
2018-11-07T05:33:25.127Z,3.20
2018-11-07T05:35:55.355Z,3.20
2018-11-07T05:38:25.451Z,3.20
2018-11-07T05:40:55.556Z,3.20
2018-11-07T05:43:25.675Z,3.20
2018-11-07T05:45:55.847Z,3.20
2018-11-07T05:48:26.985Z,3.20
2018-11-07T05:50:58.089Z,3.20
2018-11-07T05:53:28.262Z,3.20
2018-11-07T05:55:58.294Z,3.20
2018-11-07T05:58:28.406Z,3.20
2018-11-07T06:00:58.544Z,3.20
2018-11-07T06:03:28.616Z,3.10
2018-11-07T06:05:58.691Z,3.10
2018-11-07T06:08:29.582Z,3.20
2018-11-07T06:10:59.712Z,3.20
2018-11-07T06:13:29.862Z,3.10
2018-11-07T06:16:00.070Z,3.20
2018-11-07T06:18:30.205Z,3.20
2018-11-07T06:21:00.310Z,3.20
2018-11-07T06:23:30.424Z,3.20
2018-11-07T06:26:00.506Z,3.20
2018-11-07T06:28:30.603Z,3.20
2018-11-07T06:31:00.705Z,3.30
2018-11-07T06:33:30.805Z,3.30
2018-11-07T06:36:00.880Z,3.30
2018-11-07T06:38:35.199Z,3.30
2018-11-07T06:41:05.820Z,3.30
2018-11-07T06:43:35.902Z,3.40
2018-11-07T06:46:06.027Z,3.40
2018-11-07T06:48:37.262Z,3.50
2018-11-07T06:51:07.382Z,3.50
2018-11-07T06:53:37.418Z,3.60
2018-11-07T06:56:08.273Z,3.70
2018-11-07T06:58:38.326Z,3.70
2018-11-07T07:01:08.485Z,3.80
2018-11-07T07:03:38.525Z,3.90
2018-11-07T07:06:08.658Z,3.90
2018-11-07T07:08:38.733Z,4.00
2018-11-07T07:11:08.852Z,4.00
2018-11-07T07:13:40.432Z,4.10
2018-11-07T07:16:10.480Z,4.10
2018-11-07T07:18:40.849Z,4.20
2018-11-07T07:21:10.922Z,4.20
2018-11-07T07:23:41.092Z,4.30
2018-11-07T07:26:11.820Z,4.30
2018-11-07T07:28:41.910Z,4.40
2018-11-07T07:31:12.014Z,4.40
2018-11-07T07:33:42.198Z,4.50
2018-11-07T07:36:13.294Z,4.50
2018-11-07T07:38:43.612Z,4.50
2018-11-07T07:41:13.732Z,4.60
2018-11-07T07:43:43.811Z,4.60
2018-11-07T07:46:13.938Z,4.60
2018-11-07T07:48:44.040Z,4.70
2018-11-07T07:51:14.136Z,4.80
2018-11-07T07:53:44.306Z,4.80
2018-11-07T07:56:14.381Z,4.90
2018-11-07T07:58:44.530Z,4.90
2018-11-07T08:01:14.628Z,5.00
2018-11-07T08:03:44.704Z,5.10
2018-11-07T08:06:15.035Z,5.10
2018-11-07T08:08:45.130Z,5.20
2018-11-07T08:11:15.243Z,5.20
2018-11-07T08:13:45.353Z,5.30
2018-11-07T08:16:15.451Z,5.40
2018-11-07T08:18:45.590Z,5.60
2018-11-07T08:21:15.800Z,5.70
2018-11-07T08:23:45.855Z,5.70
2018-11-07T08:26:15.969Z,5.90
2018-11-07T08:28:46.098Z,6.00
2018-11-07T08:31:16.228Z,6.00
2018-11-07T08:33:46.340Z,6.20
2018-11-07T08:36:16.466Z,6.30
2018-11-07T08:38:46.560Z,6.40
2018-11-07T08:41:16.654Z,6.60
2018-11-07T08:43:46.715Z,6.70
2018-11-07T08:46:16.992Z,6.80
2018-11-07T08:48:47.101Z,6.90
2018-11-07T08:51:17.459Z,7.10
2018-11-07T08:53:47.585Z,7.30
2018-11-07T08:56:17.732Z,7.40
2018-11-07T08:58:47.788Z,7.50
2018-11-07T09:01:17.922Z,7.70
2018-11-07T09:03:47.990Z,8.10
2018-11-07T09:06:18.149Z,8.50
2018-11-07T09:08:48.301Z,9.00
2018-11-07T09:11:18.445Z,9.50
2018-11-07T09:13:48.786Z,10.10
2018-11-07T09:16:18.861Z,10.70
2018-11-07T09:18:49.139Z,11.30
2018-11-07T09:21:19.228Z,11.50
2018-11-07T09:23:49.337Z,11.40
2018-11-07T09:26:19.545Z,11.30
2018-11-07T09:28:49.694Z,11.20
2018-11-07T09:31:19.792Z,11.20
2018-11-07T09:33:49.860Z,11.20
2018-11-07T09:36:19.905Z,11.10
2018-11-07T09:38:50.038Z,11.00
2018-11-07T09:41:20.139Z,11.00
2018-11-07T09:43:51.819Z,10.90
2018-11-07T09:46:21.927Z,11.00
2018-11-07T09:48:52.029Z,11.00
2018-11-07T09:51:22.241Z,11.10
2018-11-07T09:53:52.421Z,11.30
2018-11-07T09:56:22.666Z,12.10
2018-11-07T09:58:52.793Z,12.90
2018-11-07T10:01:22.981Z,13.20
2018-11-07T10:03:53.101Z,13.40
2018-11-07T10:06:23.289Z,14.10
2018-11-07T10:08:53.377Z,14.70
2018-11-07T10:11:23.463Z,15.40
2018-11-07T10:13:53.617Z,15.80
2018-11-07T10:16:23.755Z,16.20
2018-11-07T10:18:53.942Z,16.70
2018-11-07T10:21:24.088Z,17.20
2018-11-07T10:23:54.222Z,17.80
2018-11-07T10:26:24.863Z,18.30
2018-11-07T10:28:55.277Z,18.50
2018-11-07T10:31:24.993Z,18.40
2018-11-07T10:33:55.071Z,17.80
2018-11-07T10:36:25.184Z,17.10
2018-11-07T10:38:55.342Z,16.40
2018-11-07T10:41:25.443Z,16.00
2018-11-07T10:43:55.618Z,15.70
2018-11-07T10:46:25.705Z,15.30
2018-11-07T10:48:55.872Z,15.10
2018-11-07T10:51:25.928Z,14.90
2018-11-07T10:53:56.036Z,14.80
2018-11-07T10:56:26.116Z,14.70
2018-11-07T10:58:56.178Z,14.60
2018-11-07T11:01:31.561Z,14.60
2018-11-07T11:04:01.704Z,14.60
2018-11-07T11:06:32.024Z,14.60
2018-11-07T11:09:02.137Z,14.60
2018-11-07T11:11:32.218Z,14.60
2018-11-07T11:14:02.360Z,14.60
2018-11-07T11:16:32.512Z,14.70
2018-11-07T11:19:02.650Z,14.80
2018-11-07T11:21:32.815Z,14.90
2018-11-07T11:24:03.112Z,14.80
2018-11-07T11:26:33.318Z,14.90
2018-11-07T11:29:03.497Z,15.00
2018-11-07T11:31:33.577Z,15.10
2018-11-07T11:34:03.890Z,15.20
2018-11-07T11:36:33.914Z,15.20
2018-11-07T11:39:05.162Z,15.20
2018-11-07T11:41:35.452Z,15.30
2018-11-07T11:44:06.146Z,15.40
2018-11-07T11:46:36.342Z,15.40
2018-11-07T11:49:06.754Z,15.50
2018-11-07T11:51:36.862Z,15.50
2018-11-07T11:54:07.030Z,15.70
2018-11-07T11:56:37.604Z,15.70
2018-11-07T11:59:08.245Z,15.80
2018-11-07T12:01:38.819Z,15.80
2018-11-07T12:04:08.915Z,15.70
2018-11-07T12:06:39.028Z,15.70
2018-11-07T12:09:10.369Z,15.70
2018-11-07T12:11:40.525Z,15.80
2018-11-07T12:14:10.617Z,15.80
2018-11-07T12:16:40.860Z,15.80
2018-11-07T12:19:10.966Z,15.80
2018-11-07T12:21:41.135Z,15.80
2018-11-07T12:24:11.328Z,15.80
2018-11-07T12:26:41.448Z,15.90
2018-11-07T12:29:11.714Z,15.90
2018-11-07T12:31:41.814Z,15.90
2018-11-07T12:34:11.914Z,15.90
2018-11-07T12:36:42.028Z,15.90
2018-11-07T12:39:12.152Z,15.90
2018-11-07T12:41:42.535Z,16.00
2018-11-07T12:44:12.725Z,16.00
2018-11-07T12:46:42.814Z,16.00
2018-11-07T12:49:12.932Z,16.00
2018-11-07T12:51:43.054Z,16.00
2018-11-07T12:54:13.299Z,16.10
2018-11-07T12:56:43.399Z,16.10
2018-11-07T12:59:13.505Z,16.10
2018-11-07T13:01:43.663Z,16.10
2018-11-07T13:04:13.821Z,16.30
2018-11-07T13:06:43.959Z,16.80
2018-11-07T13:09:14.053Z,17.60
2018-11-07T13:11:44.274Z,18.60
2018-11-07T13:14:14.432Z,19.60
2018-11-07T13:16:44.638Z,20.40
2018-11-07T13:19:14.687Z,21.00
2018-11-07T13:21:44.764Z,21.40
2018-11-07T13:24:14.838Z,22.00
2018-11-07T13:26:44.982Z,22.50
2018-11-07T13:29:15.091Z,22.80
2018-11-07T13:31:45.226Z,22.90
2018-11-07T13:34:15.395Z,23.00
2018-11-07T13:36:45.545Z,23.20
2018-11-07T13:39:15.900Z,23.20
2018-11-07T13:41:46.791Z,23.30
2018-11-07T13:44:17.157Z,23.30
2018-11-07T13:46:47.244Z,23.00
2018-11-07T13:49:17.326Z,22.70
2018-11-07T13:51:47.451Z,22.00
2018-11-07T13:54:17.584Z,21.00
2018-11-07T13:56:47.665Z,20.10
2018-11-07T13:59:17.766Z,19.60
2018-11-07T14:01:47.807Z,19.10
2018-11-07T14:04:17.937Z,18.60
2018-11-07T14:06:48.054Z,18.10
2018-11-07T14:09:18.140Z,17.70
2018-11-07T14:11:48.242Z,17.40
2018-11-07T14:14:18.327Z,17.20
2018-11-07T14:16:48.475Z,17.10
2018-11-07T14:19:18.573Z,16.80
2018-11-07T14:21:48.945Z,16.70
2018-11-07T14:24:19.021Z,16.40
